createdAt,value
2024-03-12T00:00:43.079Z,-14.92
2024-03-12T00:03:13.270Z,-14.91
2024-03-12T00:05:42.694Z,-14.90
2024-03-12T00:08:11.549Z,-14.93
2024-03-12T00:10:40.448Z,-14.88
2024-03-12T00:13:11.435Z,-14.87
2024-03-12T00:15:40.297Z,-14.88
2024-03-12T00:18:09.450Z,-14.90
2024-03-12T00:20:40.964Z,-14.91
2024-03-12T00:23:09.681Z,-14.95
2024-03-12T00:25:38.868Z,-14.89
2024-03-12T00:28:10.525Z,-14.83
2024-03-12T00:30:42.951Z,-14.90
2024-03-12T00:33:24.043Z,-14.91
2024-03-12T00:35:53.054Z,-14.90
2024-03-12T00:38:21.929Z,-15.01
2024-03-12T00:40:53.095Z,-15.24
2024-03-12T00:43:22.711Z,-15.13
2024-03-12T00:45:51.571Z,-15.08
2024-03-12T00:48:20.564Z,-15.11
2024-03-12T00:50:50.017Z,-15.09
2024-03-12T00:53:19.406Z,-15.20
2024-03-12T00:55:49.215Z,-15.15
2024-03-12T00:58:22.322Z,-15.16
2024-03-12T01:00:53.933Z,-15.21
2024-03-12T01:03:25.909Z,-15.26
2024-03-12T01:06:07.644Z,-15.21
2024-03-12T01:08:36.628Z,-15.29
2024-03-12T01:11:05.541Z,-15.32
2024-03-12T01:13:35.376Z,-15.39
2024-03-12T01:16:04.501Z,-15.36
2024-03-12T01:18:33.737Z,-15.43
2024-03-12T01:21:02.398Z,-15.65
2024-03-12T01:23:31.220Z,-15.48
2024-03-12T01:26:00.472Z,-15.50
2024-03-12T01:28:29.523Z,-15.48
2024-03-12T01:30:58.366Z,-15.73
2024-03-12T01:33:29.473Z,-15.61
2024-03-12T01:36:07.464Z,-15.66
2024-03-12T01:38:36.787Z,-15.82
2024-03-12T01:41:07.460Z,-15.93
2024-03-12T01:43:37.519Z,-15.94
2024-03-12T01:46:09.015Z,-16.03
2024-03-12T01:48:50.901Z,-16.17
2024-03-12T01:51:19.526Z,-16.39
2024-03-12T01:53:49.860Z,-16.33
2024-03-12T01:56:18.974Z,-16.38
2024-03-12T01:58:47.822Z,-16.47
2024-03-12T02:01:17.909Z,-16.53
2024-03-12T02:03:53.768Z,-16.57
2024-03-12T02:06:26.420Z,-16.56
2024-03-12T02:08:55.795Z,-16.63
2024-03-12T02:11:24.625Z,-16.56
2024-03-12T02:13:53.387Z,-16.61
2024-03-12T02:16:22.273Z,-16.62
2024-03-12T02:18:50.944Z,-16.58
2024-03-12T02:21:19.804Z,-16.47
2024-03-12T02:23:48.564Z,-16.40
2024-03-12T02:26:17.258Z,-16.25
2024-03-12T02:28:46.079Z,-16.02
2024-03-12T02:31:15.221Z,-15.69
2024-03-12T02:33:44.213Z,-15.35
2024-03-12T02:36:13.793Z,-15.13
2024-03-12T02:38:42.744Z,-15.09
2024-03-12T02:41:12.187Z,-14.91
2024-03-12T02:43:41.336Z,-14.82
2024-03-12T02:46:27.864Z,-14.78
2024-03-12T02:48:56.656Z,-14.68
2024-03-12T02:51:25.676Z,-14.58
2024-03-12T02:53:54.394Z,-14.52
2024-03-12T02:56:23.004Z,-14.58
2024-03-12T02:58:51.823Z,-14.65
2024-03-12T03:01:20.726Z,-14.72
2024-03-12T03:03:49.674Z,-14.58
2024-03-12T03:06:19.203Z,-14.56
2024-03-12T03:08:48.236Z,-14.44
2024-03-12T03:11:16.835Z,-14.40
2024-03-12T03:13:46.122Z,-14.27
2024-03-12T03:16:27.151Z,-14.18
2024-03-12T03:18:57.186Z,-13.98
2024-03-12T03:21:26.631Z,-13.98
2024-03-12T03:23:55.486Z,-13.69
2024-03-12T03:26:24.255Z,-13.40
2024-03-12T03:28:53.102Z,-13.56
2024-03-12T03:31:21.643Z,-13.32
2024-03-12T03:33:50.478Z,-13.19
2024-03-12T03:36:19.322Z,-13.00
2024-03-12T03:38:48.162Z,-12.86
2024-03-12T03:41:17.179Z,-12.85
2024-03-12T03:43:46.472Z,-12.41
2024-03-12T03:46:15.420Z,-12.20
2024-03-12T03:48:44.105Z,-11.96
2024-03-12T03:51:12.746Z,-11.62
2024-03-12T03:53:41.943Z,-11.47
2024-03-12T03:56:17.425Z,-11.17
2024-03-12T03:59:03.114Z,-10.97
2024-03-12T04:01:32.192Z,-10.81
2024-03-12T04:04:12.845Z,-10.54
2024-03-12T04:06:45.779Z,-10.37
2024-03-12T04:09:14.430Z,-10.30
2024-03-12T04:11:45.794Z,-10.36
2024-03-12T04:14:15.122Z,-10.36
2024-03-12T04:16:43.925Z,-10.52
2024-03-12T04:19:12.496Z,-10.43
2024-03-12T04:21:41.938Z,-10.39
2024-03-12T04:24:12.736Z,-10.38
2024-03-12T04:26:42.195Z,-10.58
2024-03-12T04:29:12.333Z,-10.68
2024-03-12T04:31:41.683Z,-10.73
2024-03-12T04:34:23.418Z,-10.89
2024-03-12T04:36:52.770Z,-11.02
2024-03-12T04:39:41.834Z,-11.15
2024-03-12T04:42:11.136Z,-11.18
2024-03-12T04:44:39.820Z,-11.01
2024-03-12T04:47:21.178Z,-10.90
2024-03-12T04:49:50.239Z,-10.83
2024-03-12T04:52:19.040Z,-10.72
2024-03-12T04:54:48.482Z,-10.61
2024-03-12T04:57:17.404Z,-10.57
2024-03-12T04:59:46.567Z,-10.41
2024-03-12T05:02:17.667Z,-10.40
2024-03-12T05:04:46.504Z,-10.32
2024-03-12T05:07:15.141Z,-10.25
2024-03-12T05:09:44.823Z,-10.03
2024-03-12T05:12:13.434Z,-9.90
2024-03-12T05:14:42.283Z,-9.66
2024-03-12T05:17:11.246Z,-9.54
2024-03-12T05:19:42.735Z,-9.33
2024-03-12T05:22:11.441Z,-8.92
2024-03-12T05:24:40.304Z,-8.58
2024-03-12T05:27:09.129Z,-8.21
2024-03-12T05:29:45.301Z,-7.88
2024-03-12T05:32:19.715Z,-7.61
2024-03-12T05:34:54.576Z,-7.32
2024-03-12T05:37:42.734Z,-7.25
2024-03-12T05:40:20.767Z,-7.18
2024-03-12T05:43:07.968Z,-7.08
2024-03-12T05:45:55.051Z,-6.91
2024-03-12T05:48:23.939Z,-6.76
2024-03-12T05:50:53.187Z,-6.54
2024-03-12T05:53:23.012Z,-6.26
2024-03-12T05:55:51.871Z,-5.93
2024-03-12T05:58:20.828Z,-5.98
2024-03-12T06:00:50.384Z,-5.90
2024-03-12T06:03:19.397Z,-5.89
2024-03-12T06:05:47.969Z,-5.73
2024-03-12T06:08:17.414Z,-5.48
2024-03-12T06:10:46.235Z,-5.25
2024-03-12T06:13:15.195Z,-5.05
2024-03-12T06:15:44.187Z,-5.00
2024-03-12T06:18:14.151Z,-4.86
2024-03-12T06:20:54.648Z,-4.75
2024-03-12T06:23:25.015Z,-4.62
2024-03-12T06:26:06.035Z,-4.49
2024-03-12T06:28:35.029Z,-4.18
2024-03-12T06:31:06.023Z,-3.96
2024-03-12T06:33:40.136Z,-4.12
2024-03-12T06:36:09.835Z,-4.14
2024-03-12T06:38:38.468Z,-4.02
2024-03-12T06:41:09.367Z,-3.80
2024-03-12T06:43:42.640Z,-3.41
2024-03-12T06:46:13.950Z,-3.29
2024-03-12T06:48:43.205Z,-3.19
2024-03-12T06:51:12.638Z,-3.16
2024-03-12T06:53:41.914Z,-3.19
2024-03-12T06:56:13.277Z,-3.38
2024-03-12T06:58:46.762Z,-3.32
2024-03-12T07:01:16.007Z,-3.31
2024-03-12T07:03:45.120Z,-3.01
2024-03-12T07:06:14.268Z,-3.08
2024-03-12T07:08:45.123Z,-3.11
2024-03-12T07:11:27.834Z,-2.97
2024-03-12T07:14:04.220Z,-3.02
2024-03-12T07:16:34.222Z,-2.92
2024-03-12T07:19:03.052Z,-2.92
2024-03-12T07:21:31.734Z,-2.94
2024-03-12T07:24:00.736Z,-3.09
2024-03-12T07:26:30.363Z,-3.02
2024-03-12T07:28:59.035Z,-2.83
2024-03-12T07:31:27.763Z,-2.85
2024-03-12T07:33:58.821Z,-2.64
2024-03-12T07:36:39.880Z,-2.48
2024-03-12T07:39:11.156Z,-2.41
2024-03-12T07:41:41.065Z,-2.49
2024-03-12T07:44:10.373Z,-2.51
2024-03-12T07:46:39.166Z,-2.41
2024-03-12T07:49:12.389Z,-2.43
2024-03-12T07:51:41.399Z,-2.31
2024-03-12T07:54:10.103Z,-2.25
2024-03-12T07:56:38.972Z,-2.30
2024-03-12T07:59:09.642Z,-2.12
2024-03-12T08:01:38.286Z,-2.13
2024-03-12T08:04:07.173Z,-2.21
2024-03-12T08:06:37.129Z,-2.21
2024-03-12T08:09:05.991Z,-1.85
2024-03-12T08:11:35.873Z,-1.57
2024-03-12T08:14:08.872Z,-1.48
2024-03-12T08:16:40.609Z,-1.50
2024-03-12T08:19:12.322Z,-1.62
2024-03-12T08:21:41.372Z,-1.72
2024-03-12T08:24:12.654Z,-1.58
2024-03-12T08:26:41.453Z,-1.47
2024-03-12T08:29:10.075Z,-1.40
2024-03-12T08:31:47.453Z,-1.54
2024-03-12T08:34:20.503Z,-1.52
2024-03-12T08:36:52.092Z,-1.57
2024-03-12T08:39:21.092Z,-1.69
2024-03-12T08:41:49.861Z,-1.85
2024-03-12T08:44:18.476Z,-1.78
2024-03-12T08:46:47.202Z,-1.83
2024-03-12T08:49:16.143Z,-1.98
2024-03-12T08:51:44.925Z,-2.10
2024-03-12T08:54:15.982Z,-2.11
2024-03-12T08:56:44.811Z,-2.17
2024-03-12T08:59:17.646Z,-2.41
2024-03-12T09:01:46.555Z,-2.53
2024-03-12T09:04:15.566Z,-2.61
2024-03-12T09:06:44.545Z,-2.85
2024-03-12T09:09:17.747Z,-2.89
2024-03-12T09:11:48.385Z,-3.09
2024-03-12T09:14:17.128Z,-3.18
2024-03-12T09:16:46.347Z,-3.20
2024-03-12T09:19:15.229Z,-3.31
2024-03-12T09:21:44.189Z,-3.32
2024-03-12T09:24:12.807Z,-3.43
2024-03-12T09:26:41.648Z,-3.56
2024-03-12T09:29:10.374Z,-3.68
2024-03-12T09:31:40.908Z,-3.75
2024-03-12T09:34:11.501Z,-3.81
2024-03-12T09:36:41.708Z,-3.91
2024-03-12T09:39:12.730Z,-4.02
2024-03-12T09:41:54.063Z,-4.02
2024-03-12T09:44:50.313Z,-4.11
2024-03-12T09:47:19.652Z,-4.10
2024-03-12T09:49:53.382Z,-4.07
2024-03-12T09:52:22.256Z,-4.18
2024-03-12T09:54:51.256Z,-4.24
2024-03-12T09:57:20.521Z,-4.32
2024-03-12T09:59:49.726Z,-4.42
2024-03-12T10:02:18.373Z,-4.52
2024-03-12T10:04:49.301Z,-4.60
2024-03-12T10:07:21.518Z,-4.64
2024-03-12T10:09:51.400Z,-4.76
2024-03-12T10:12:23.531Z,-4.84
2024-03-12T10:14:54.122Z,-4.92
2024-03-12T10:17:22.866Z,-4.98
2024-03-12T10:19:52.590Z,-5.04
2024-03-12T10:22:28.391Z,-5.01
2024-03-12T10:25:10.895Z,-5.22
2024-03-12T10:30:28.482Z,-5.16
2024-03-12T10:32:57.715Z,-5.24
2024-03-12T10:35:27.201Z,-5.29
2024-03-12T10:37:56.624Z,-5.32
2024-03-12T10:40:28.114Z,-5.36
2024-03-12T10:43:03.671Z,-5.41
2024-03-12T10:45:32.544Z,-5.48
2024-03-12T10:48:08.056Z,-5.55
2024-03-12T10:50:39.433Z,-5.67
2024-03-12T10:53:23.695Z,-5.70
2024-03-12T10:55:52.678Z,-5.72
2024-03-12T10:58:24.085Z,-5.78
2024-03-12T11:00:53.614Z,-6.01
2024-03-12T11:03:25.272Z,-5.93
2024-03-12T11:05:56.168Z,-6.01
2024-03-12T11:08:25.846Z,-5.98
2024-03-12T11:10:55.350Z,-6.04
2024-03-12T11:13:24.710Z,-6.09
2024-03-12T11:15:59.137Z,-6.22
2024-03-12T11:18:36.490Z,-6.16
2024-03-12T11:21:06.637Z,-6.15
2024-03-12T11:23:38.733Z,-6.22
2024-03-12T11:26:08.995Z,-6.22
2024-03-12T11:28:52.322Z,-6.28
2024-03-12T11:31:21.656Z,-6.31
2024-03-12T11:33:53.996Z,-6.34
2024-03-12T11:36:24.109Z,-6.44
2024-03-12T11:38:54.701Z,-6.48
2024-03-12T11:41:23.620Z,-6.57
2024-03-12T11:43:52.558Z,-6.69
2024-03-12T11:46:44.260Z,-6.71
2024-03-12T11:49:34.529Z,-6.82
2024-03-12T11:52:03.691Z,-6.86
2024-03-12T11:54:44.959Z,-7.13
2024-03-12T11:57:26.762Z,-7.01
2024-03-12T11:59:58.330Z,-7.03
2024-03-12T12:02:28.441Z,-7.10
2024-03-12T12:04:58.256Z,-7.16
2024-03-12T12:07:29.759Z,-7.25
2024-03-12T12:09:58.615Z,-7.36
2024-03-12T12:12:29.222Z,-7.37
2024-03-12T12:14:58.597Z,-7.60
2024-03-12T12:17:27.992Z,-7.79
2024-03-12T12:20:16.895Z,-7.78
2024-03-12T12:22:50.362Z,-7.87
2024-03-12T12:25:20.642Z,-7.98
2024-03-12T12:27:49.428Z,-8.05
2024-03-12T12:30:22.649Z,-8.15
2024-03-12T12:32:53.785Z,-8.33
2024-03-12T12:35:24.814Z,-8.49
2024-03-12T12:37:54.488Z,-8.64
2024-03-12T12:40:23.462Z,-8.84
2024-03-12T12:42:55.538Z,-8.90
2024-03-12T12:45:26.185Z,-9.12
2024-03-12T12:47:56.226Z,-9.13
2024-03-12T12:50:29.742Z,-9.49
2024-03-12T12:53:02.757Z,-9.49
2024-03-12T12:55:32.387Z,-9.51
2024-03-12T12:58:03.551Z,-9.64
2024-03-12T13:00:42.169Z,-9.88
2024-03-12T13:03:18.754Z,-10.30
2024-03-12T13:05:52.910Z,-10.30
2024-03-12T13:08:26.812Z,-10.37
2024-03-12T13:11:06.999Z,-10.43
2024-03-12T13:13:37.279Z,-10.72
2024-03-12T13:16:17.321Z,-10.76
2024-03-12T13:18:54.481Z,-10.76
2024-03-12T13:21:26.954Z,-10.79
2024-03-12T13:23:56.271Z,-10.79
2024-03-12T13:26:25.476Z,-10.82
2024-03-12T13:28:57.618Z,-10.86
2024-03-12T13:31:27.195Z,-11.01
2024-03-12T13:33:56.475Z,-11.23
2024-03-12T13:36:37.478Z,-11.35
2024-03-12T13:39:08.371Z,-11.45
2024-03-12T13:41:37.926Z,-11.50
2024-03-12T13:44:06.890Z,-11.63
2024-03-12T13:46:42.253Z,-11.71
2024-03-12T13:49:15.694Z,-11.79
2024-03-12T13:51:47.538Z,-12.00
2024-03-12T13:54:17.091Z,-12.12
2024-03-12T13:56:47.050Z,-12.18
2024-03-12T13:59:19.331Z,-12.18
2024-03-12T14:01:51.391Z,-12.21
2024-03-12T14:04:20.051Z,-12.24
2024-03-12T14:06:49.425Z,-12.35
2024-03-12T14:09:19.195Z,-12.47
2024-03-12T14:11:48.384Z,-12.66
2024-03-12T14:14:17.277Z,-12.69
2024-03-12T14:16:46.205Z,-12.78
2024-03-12T14:19:15.102Z,-12.91
2024-03-12T14:21:43.818Z,-13.03
2024-03-12T14:24:12.744Z,-13.00
2024-03-12T14:26:41.884Z,-12.95
2024-03-12T14:29:12.408Z,-12.97
2024-03-12T14:31:43.207Z,-13.06
2024-03-12T14:34:12.745Z,-13.19
2024-03-12T14:36:41.959Z,-13.28
2024-03-12T14:39:14.250Z,-13.36
2024-03-12T14:41:43.627Z,-13.45
2024-03-12T14:44:13.352Z,-13.54
2024-03-12T14:46:42.835Z,-13.58
2024-03-12T14:49:12.126Z,-13.89
2024-03-12T14:51:43.603Z,-13.80
2024-03-12T14:54:12.724Z,-13.77
2024-03-12T14:56:42.125Z,-13.94
2024-03-12T14:59:11.173Z,-13.94
2024-03-12T15:01:41.722Z,-13.90
2024-03-12T15:04:10.883Z,-13.93
2024-03-12T15:06:42.376Z,-14.13
2024-03-12T15:09:15.584Z,-14.00
2024-03-12T15:11:45.085Z,-14.10
2024-03-12T15:14:14.186Z,-14.30
2024-03-12T15:16:43.958Z,-14.38
2024-03-12T15:19:13.918Z,-14.67
2024-03-12T15:21:42.982Z,-14.47
2024-03-12T15:24:13.264Z,-14.32
2024-03-12T15:26:42.606Z,-14.36
2024-03-12T15:29:11.704Z,-14.44
2024-03-12T15:31:41.707Z,-14.50
2024-03-12T15:34:10.750Z,-14.61
2024-03-12T15:36:40.764Z,-14.69
2024-03-12T15:39:11.506Z,-14.83
2024-03-12T15:41:40.529Z,-14.89
2024-03-12T15:44:09.550Z,-14.97
2024-03-12T15:46:38.969Z,-15.05
2024-03-12T15:49:08.166Z,-15.09
2024-03-12T15:51:38.638Z,-15.02
2024-03-12T15:54:11.164Z,-15.08
2024-03-12T15:56:46.195Z,-15.04
2024-03-12T15:59:28.166Z,-15.07
2024-03-12T16:01:57.213Z,-15.09
2024-03-12T16:04:27.021Z,-15.17
2024-03-12T16:06:55.943Z,-15.17
2024-03-12T16:09:25.055Z,-15.07
2024-03-12T16:11:55.648Z,-15.06
2024-03-12T16:14:24.305Z,-15.12
2024-03-12T16:16:53.107Z,-15.42
2024-03-12T16:19:23.897Z,-15.51
2024-03-12T16:21:53.775Z,-15.27
2024-03-12T16:24:22.909Z,-15.42
2024-03-12T16:26:54.468Z,-15.43
2024-03-12T16:29:25.489Z,-15.56
2024-03-12T16:31:54.980Z,-15.46
2024-03-12T16:34:27.342Z,-15.46
2024-03-12T16:36:56.291Z,-15.41
2024-03-12T16:39:26.006Z,-15.48
2024-03-12T16:41:58.221Z,-15.51
2024-03-12T16:44:27.526Z,-15.54
2024-03-12T16:46:56.175Z,-15.45
2024-03-12T16:49:24.924Z,-15.43
2024-03-12T16:51:54.950Z,-15.49
2024-03-12T16:54:23.912Z,-15.41
2024-03-12T16:56:55.481Z,-15.37
2024-03-12T16:59:25.377Z,-15.54
2024-03-12T17:01:54.347Z,-15.64
2024-03-12T17:04:35.155Z,-15.38
2024-03-12T17:07:10.965Z,-15.42
2024-03-12T17:09:43.542Z,-15.42
2024-03-12T17:12:14.461Z,-15.58
2024-03-12T17:14:43.470Z,-15.58
2024-03-12T17:17:15.914Z,-15.72
2024-03-12T17:19:45.537Z,-15.89
2024-03-12T17:22:15.066Z,-15.95
2024-03-12T17:24:44.397Z,-16.05
2024-03-12T17:27:16.004Z,-16.07
2024-03-12T17:29:58.931Z,-16.11
2024-03-12T17:32:28.504Z,-16.31
2024-03-12T17:34:59.575Z,-16.38
2024-03-12T17:37:36.143Z,-16.39
2024-03-12T17:40:15.990Z,-16.42
2024-03-12T17:42:46.677Z,-16.29
2024-03-12T17:45:17.465Z,-16.22
2024-03-12T17:47:52.309Z,-16.21
2024-03-12T17:50:23.589Z,-16.13
2024-03-12T17:52:54.144Z,-16.07
2024-03-12T17:55:23.756Z,-16.08
2024-03-12T17:57:54.560Z,-16.04
2024-03-12T18:00:24.294Z,-15.98
2024-03-12T18:02:53.886Z,-16.04
2024-03-12T18:05:23.723Z,-16.06
2024-03-12T18:08:06.797Z,-16.09
2024-03-12T18:10:37.447Z,-16.15
2024-03-12T18:13:06.628Z,-16.31
2024-03-12T18:15:36.941Z,-16.36
2024-03-12T18:18:06.802Z,-16.41
2024-03-12T18:20:37.865Z,-16.43
2024-03-12T18:23:06.749Z,-16.41
2024-03-12T18:25:37.285Z,-16.46
2024-03-12T18:28:06.477Z,-16.53
2024-03-12T18:30:35.844Z,-16.53
2024-03-12T18:33:06.287Z,-16.63
2024-03-12T18:35:35.206Z,-16.66
2024-03-12T18:38:05.291Z,-16.74
2024-03-12T18:40:34.015Z,-16.88
2024-03-12T18:43:05.218Z,-16.59
2024-03-12T18:45:33.848Z,-16.49
2024-03-12T18:48:05.927Z,-16.46
2024-03-12T18:50:35.337Z,-16.41
2024-03-12T18:53:07.744Z,-16.32
2024-03-12T18:55:37.305Z,-16.39
2024-03-12T18:58:06.663Z,-16.36
2024-03-12T19:00:37.109Z,-16.34
2024-03-12T19:03:16.752Z,-16.46
2024-03-12T19:05:53.981Z,-16.42
2024-03-12T19:08:23.204Z,-16.53
2024-03-12T19:10:52.322Z,-16.54
2024-03-12T19:13:22.551Z,-16.54
2024-03-12T19:15:51.617Z,-16.50
2024-03-12T19:18:24.763Z,-16.51
2024-03-12T19:20:54.974Z,-16.52
2024-03-12T19:23:25.772Z,-16.52
2024-03-12T19:25:56.788Z,-16.48
2024-03-12T19:28:25.838Z,-16.46
2024-03-12T19:30:55.466Z,-16.45
2024-03-12T19:33:24.912Z,-16.56
2024-03-12T19:35:55.613Z,-16.45
2024-03-12T19:38:25.446Z,-16.51
2024-03-12T19:40:55.715Z,-16.53
2024-03-12T19:43:26.734Z,-16.41
2024-03-12T19:46:00.667Z,-16.47
2024-03-12T19:48:30.505Z,-16.64
2024-03-12T19:50:59.352Z,-16.51
2024-03-12T19:53:28.467Z,-16.48
2024-03-12T19:55:58.039Z,-16.60
2024-03-12T19:58:30.363Z,-16.53
2024-03-12T20:01:01.807Z,-16.65
2024-03-12T20:03:30.617Z,-16.71
2024-03-12T20:06:00.298Z,-16.76
2024-03-12T20:08:28.992Z,-16.74
2024-03-12T20:10:58.139Z,-16.82
2024-03-12T20:13:28.036Z,-16.89
2024-03-12T20:15:56.982Z,-17.05
2024-03-12T20:18:29.990Z,-17.13
2024-03-12T20:20:58.555Z,-17.26
2024-03-12T20:23:28.286Z,-17.51
2024-03-12T20:25:56.993Z,-17.72
2024-03-12T20:28:25.950Z,-17.91
2024-03-12T20:30:54.940Z,-17.93
2024-03-12T20:33:26.062Z,-17.91
2024-03-12T20:35:55.929Z,-17.86
2024-03-12T20:38:25.719Z,-17.66
2024-03-12T20:40:54.909Z,-17.73
2024-03-12T20:43:23.610Z,-17.69
2024-03-12T20:45:52.950Z,-17.73
2024-03-12T20:48:33.972Z,-17.74
2024-03-12T20:51:05.311Z,-17.53
2024-03-12T20:53:35.776Z,-17.45
2024-03-12T20:56:06.174Z,-17.40
2024-03-12T20:58:34.972Z,-17.32
2024-03-12T21:01:04.707Z,-17.23
2024-03-12T21:03:35.780Z,-17.20
2024-03-12T21:06:16.736Z,-17.28
2024-03-12T21:08:47.821Z,-17.36
2024-03-12T21:11:17.183Z,-17.39
2024-03-12T21:13:58.237Z,-17.45
2024-03-12T21:16:27.275Z,-17.47
2024-03-12T21:18:55.900Z,-17.64
2024-03-12T21:21:24.637Z,-17.89
2024-03-12T21:23:54.185Z,-17.75
2024-03-12T21:26:25.494Z,-17.85
2024-03-12T21:28:54.506Z,-17.90
2024-03-12T21:31:23.868Z,-17.87
2024-03-12T21:33:53.438Z,-17.95
2024-03-12T21:36:22.244Z,-17.94
2024-03-12T21:38:51.151Z,-17.84
2024-03-12T21:41:21.108Z,-17.79
2024-03-12T21:43:50.728Z,-17.80
2024-03-12T21:46:22.861Z,-17.59
2024-03-12T21:48:52.397Z,-17.34
2024-03-12T21:51:21.371Z,-17.29
2024-03-12T21:53:50.661Z,-17.26
2024-03-12T21:56:19.365Z,-17.22
2024-03-12T21:58:52.827Z,-17.27
2024-03-12T22:01:22.354Z,-17.25
2024-03-12T22:03:52.234Z,-17.24
2024-03-12T22:06:22.149Z,-17.20
2024-03-12T22:08:56.349Z,-17.13
2024-03-12T22:11:25.340Z,-17.09
2024-03-12T22:13:54.230Z,-17.10
2024-03-12T22:16:23.167Z,-17.06
2024-03-12T22:18:51.927Z,-16.96
2024-03-12T22:21:26.018Z,-16.96
2024-03-12T22:23:55.429Z,-16.90
2024-03-12T22:26:24.705Z,-16.90
2024-03-12T22:28:56.520Z,-16.78
2024-03-12T22:31:25.424Z,-16.76
2024-03-12T22:33:55.497Z,-16.83
2024-03-12T22:36:25.431Z,-16.57
2024-03-12T22:38:55.553Z,-16.53
2024-03-12T22:41:24.688Z,-16.51
2024-03-12T22:43:53.925Z,-16.47
2024-03-12T22:46:23.848Z,-16.54
2024-03-12T22:48:53.124Z,-16.44
2024-03-12T22:51:22.267Z,-16.41
2024-03-12T22:53:51.363Z,-16.48
2024-03-12T22:56:21.258Z,-16.48
2024-03-12T22:58:51.090Z,-16.64
2024-03-12T23:01:20.863Z,-16.39
2024-03-12T23:03:50.518Z,-16.57
2024-03-12T23:06:19.921Z,-16.30
2024-03-12T23:08:50.287Z,-16.28
2024-03-12T23:11:20.957Z,-16.20
2024-03-12T23:13:52.950Z,-16.27
2024-03-12T23:16:21.587Z,-16.14
2024-03-12T23:18:54.915Z,-16.16
2024-03-12T23:21:23.706Z,-16.04
2024-03-12T23:23:55.219Z,-16.08
2024-03-12T23:26:25.385Z,-16.03
2024-03-12T23:28:55.130Z,-15.97
2024-03-12T23:31:24.034Z,-15.85
2024-03-12T23:33:54.908Z,-15.86
2024-03-12T23:36:29.353Z,-15.80
2024-03-12T23:38:58.686Z,-15.73
2024-03-12T23:41:27.552Z,-15.84
2024-03-12T23:43:56.889Z,-15.57
2024-03-12T23:46:26.569Z,-15.60
2024-03-12T23:48:56.246Z,-15.44
2024-03-12T23:51:25.107Z,-15.45
2024-03-12T23:53:53.846Z,-15.38
2024-03-12T23:56:22.971Z,-15.39
2024-03-12T23:58:52.036Z,-15.26
